sensor_id;sensor_type;location;lat;lon;timestamp;pressure;altitude;pressure_sealevel;temperature;humidity
23473;BME280;11909;52.516;13.564;2023-09-12T00:00:05;100540.41;;;19.14;82.51
23473;BME280;11909;52.516;13.564;2023-09-12T00:02:33;100539.00;;;19.08;82.83
23473;BME280;11909;52.516;13.564;2023-09-12T00:05:03;100539.69;;;19.04;83.26
23473;BME280;11909;52.516;13.564;2023-09-12T00:07:31;100534.38;;;18.99;83.88
23473;BME280;11909;52.516;13.564;2023-09-12T00:09:59;100547.16;;;18.91;83.93
23473;BME280;11909;52.516;13.564;2023-09-12T00:12:27;100541.69;;;18.83;83.82
23473;BME280;11909;52.516;13.564;2023-09-12T00:14:55;100544.81;;;18.81;83.89
23473;BME280;11909;52.516;13.564;2023-09-12T00:17:23;100550.03;;;18.83;84.08
23473;BME280;11909;52.516;13.564;2023-09-12T00:19:53;100543.91;;;18.89;83.77
23473;BME280;11909;52.516;13.564;2023-09-12T00:22:22;100541.28;;;18.93;83.60
23473;BME280;11909;52.516;13.564;2023-09-12T00:24:50;100545.88;;;18.89;83.86
23473;BME280;11909;52.516;13.564;2023-09-12T00:27:18;100547.25;;;18.83;84.53
23473;BME280;11909;52.516;13.564;2023-09-12T00:29:46;100546.78;;;18.81;84.53
23473;BME280;11909;52.516;13.564;2023-09-12T00:32:14;100547.72;;;18.85;84.17
23473;BME280;11909;52.516;13.564;2023-09-12T00:34:42;100551.78;;;18.87;84.19
23473;BME280;11909;52.516;13.564;2023-09-12T00:37:10;100549.69;;;18.84;84.08
23473;BME280;11909;52.516;13.564;2023-09-12T00:39:40;100554.50;;;18.75;84.83
23473;BME280;11909;52.516;13.564;2023-09-12T00:42:07;100544.44;;;18.70;85.33
23473;BME280;11909;52.516;13.564;2023-09-12T00:44:36;100543.94;;;18.68;85.44
23473;BME280;11909;52.516;13.564;2023-09-12T00:47:04;100540.97;;;18.73;85.03
23473;BME280;11909;52.516;13.564;2023-09-12T00:49:33;100545.22;;;18.71;85.10
23473;BME280;11909;52.516;13.564;2023-09-12T00:52:01;100548.69;;;18.68;85.37
23473;BME280;11909;52.516;13.564;2023-09-12T00:54:30;100547.41;;;18.65;85.60
23473;BME280;11909;52.516;13.564;2023-09-12T00:56:59;100544.16;;;18.63;86.01
23473;BME280;11909;52.516;13.564;2023-09-12T00:59:28;100540.69;;;18.66;86.33
23473;BME280;11909;52.516;13.564;2023-09-12T01:01:56;100538.59;;;18.63;86.50
23473;BME280;11909;52.516;13.564;2023-09-12T01:04:25;100538.81;;;18.58;87.12
23473;BME280;11909;52.516;13.564;2023-09-12T01:07:02;100538.59;;;18.63;87.49
23473;BME280;11909;52.516;13.564;2023-09-12T01:09:31;100538.13;;;18.61;87.95
23473;BME280;11909;52.516;13.564;2023-09-12T01:12:01;100536.34;;;18.56;88.17
23473;BME280;11909;52.516;13.564;2023-09-12T01:14:29;100545.19;;;18.58;87.80
23473;BME280;11909;52.516;13.564;2023-09-12T01:16:58;100538.56;;;18.51;88.26
23473;BME280;11909;52.516;13.564;2023-09-12T01:19:26;100540.97;;;18.52;88.19
23473;BME280;11909;52.516;13.564;2023-09-12T01:22:18;100532.16;;;18.50;89.00
23473;BME280;11909;52.516;13.564;2023-09-12T01:25:07;100534.63;;;18.52;89.12
23473;BME280;11909;52.516;13.564;2023-09-12T01:27:39;100532.53;;;18.48;89.76
23473;BME280;11909;52.516;13.564;2023-09-12T01:30:10;100536.09;;;18.49;89.93
23473;BME280;11909;52.516;13.564;2023-09-12T01:32:38;100540.38;;;18.46;90.46
23473;BME280;11909;52.516;13.564;2023-09-12T01:35:08;100536.38;;;18.35;90.99
23473;BME280;11909;52.516;13.564;2023-09-12T01:37:36;100534.06;;;18.37;90.97
23473;BME280;11909;52.516;13.564;2023-09-12T01:40:05;100529.28;;;18.46;90.48
23473;BME280;11909;52.516;13.564;2023-09-12T01:42:38;100538.56;;;18.51;90.14
23473;BME280;11909;52.516;13.564;2023-09-12T01:45:10;100539.56;;;18.46;90.06
23473;BME280;11909;52.516;13.564;2023-09-12T01:47:39;100532.59;;;18.40;90.81
23473;BME280;11909;52.516;13.564;2023-09-12T01:50:09;100532.91;;;18.38;91.27
23473;BME280;11909;52.516;13.564;2023-09-12T01:52:40;100528.25;;;18.30;92.18
23473;BME280;11909;52.516;13.564;2023-09-12T01:55:09;100530.34;;;18.33;91.80
23473;BME280;11909;52.516;13.564;2023-09-12T01:57:40;100536.38;;;18.35;91.86
23473;BME280;11909;52.516;13.564;2023-09-12T02:00:09;100531.97;;;18.34;91.76
23473;BME280;11909;52.516;13.564;2023-09-12T02:02:38;100534.59;;;18.30;92.00
23473;BME280;11909;52.516;13.564;2023-09-12T02:05:09;100529.09;;;18.22;92.41
23473;BME280;11909;52.516;13.564;2023-09-12T02:07:41;100526.06;;;18.14;93.06
23473;BME280;11909;52.516;13.564;2023-09-12T02:10:09;100527.00;;;18.18;93.05
23473;BME280;11909;52.516;13.564;2023-09-12T02:12:39;100521.13;;;18.20;92.71
23473;BME280;11909;52.516;13.564;2023-09-12T02:15:07;100529.63;;;18.24;92.47
23473;BME280;11909;52.516;13.564;2023-09-12T02:17:36;100522.91;;;18.25;92.14
23473;BME280;11909;52.516;13.564;2023-09-12T02:20:07;100518.81;;;18.22;92.38
23473;BME280;11909;52.516;13.564;2023-09-12T02:22:35;100511.72;;;18.12;93.32
23473;BME280;11909;52.516;13.564;2023-09-12T02:25:04;100518.47;;;18.02;94.12
23473;BME280;11909;52.516;13.564;2023-09-12T02:27:33;100517.47;;;18.07;93.88
23473;BME280;11909;52.516;13.564;2023-09-12T02:30:02;100512.38;;;18.09;93.61
23473;BME280;11909;52.516;13.564;2023-09-12T02:32:31;100516.63;;;18.06;93.82
23473;BME280;11909;52.516;13.564;2023-09-12T02:34:58;100519.41;;;18.06;93.76
23473;BME280;11909;52.516;13.564;2023-09-12T02:37:26;100514.38;;;18.00;94.27
23473;BME280;11909;52.516;13.564;2023-09-12T02:39:54;100511.94;;;17.98;94.50
23473;BME280;11909;52.516;13.564;2023-09-12T02:42:22;100515.88;;;17.97;94.64
23473;BME280;11909;52.516;13.564;2023-09-12T02:44:50;100513.41;;;17.96;94.69
23473;BME280;11909;52.516;13.564;2023-09-12T02:47:21;100513.88;;;17.98;94.27
23473;BME280;11909;52.516;13.564;2023-09-12T02:49:49;100507.03;;;18.04;94.07
23473;BME280;11909;52.516;13.564;2023-09-12T02:52:17;100513.25;;;18.01;93.58
23473;BME280;11909;52.516;13.564;2023-09-12T02:54:44;100511.63;;;18.00;93.88
23473;BME280;11909;52.516;13.564;2023-09-12T02:57:12;100506.72;;;17.97;94.09
23473;BME280;11909;52.516;13.564;2023-09-12T02:59:40;100510.16;;;17.94;94.42
23473;BME280;11909;52.516;13.564;2023-09-12T03:02:08;100511.19;;;17.89;94.98
23473;BME280;11909;52.516;13.564;2023-09-12T03:04:38;100508.41;;;17.89;94.99
23473;BME280;11909;52.516;13.564;2023-09-12T03:07:06;100507.13;;;17.86;95.10
23473;BME280;11909;52.516;13.564;2023-09-12T03:09:34;100492.13;;;17.78;95.47
23473;BME280;11909;52.516;13.564;2023-09-12T03:12:02;100496.59;;;17.71;96.14
23473;BME280;11909;52.516;13.564;2023-09-12T03:14:31;100495.16;;;17.65;96.46
23473;BME280;11909;52.516;13.564;2023-09-12T03:16:59;100497.94;;;17.65;96.53
23473;BME280;11909;52.516;13.564;2023-09-12T03:19:29;100501.19;;;17.67;96.24
23473;BME280;11909;52.516;13.564;2023-09-12T03:21:59;100504.94;;;17.62;96.07
23473;BME280;11909;52.516;13.564;2023-09-12T03:24:26;100501.56;;;17.56;96.43
23473;BME280;11909;52.516;13.564;2023-09-12T03:26:55;100502.25;;;17.53;96.78
23473;BME280;11909;52.516;13.564;2023-09-12T03:29:23;100498.81;;;17.56;96.83
23473;BME280;11909;52.516;13.564;2023-09-12T03:31:51;100495.56;;;17.54;96.33
23473;BME280;11909;52.516;13.564;2023-09-12T03:34:19;100489.50;;;17.52;96.64
23473;BME280;11909;52.516;13.564;2023-09-12T03:36:47;100496.19;;;17.51;96.62
23473;BME280;11909;52.516;13.564;2023-09-12T03:39:16;100494.41;;;17.55;96.23
23473;BME280;11909;52.516;13.564;2023-09-12T03:41:44;100499.13;;;17.55;95.87
23473;BME280;11909;52.516;13.564;2023-09-12T03:44:12;100501.56;;;17.56;95.74
23473;BME280;11909;52.516;13.564;2023-09-12T03:46:40;100500.44;;;17.57;95.42
23473;BME280;11909;52.516;13.564;2023-09-12T03:49:08;100504.81;;;17.58;95.30
23473;BME280;11909;52.516;13.564;2023-09-12T03:51:36;100508.75;;;17.57;95.31
23473;BME280;11909;52.516;13.564;2023-09-12T03:54:04;100503.47;;;17.65;94.55
23473;BME280;11909;52.516;13.564;2023-09-12T03:56:34;100507.72;;;17.62;94.13
23473;BME280;11909;52.516;13.564;2023-09-12T03:59:02;100503.53;;;17.56;94.03
23473;BME280;11909;52.516;13.564;2023-09-12T04:01:29;100513.16;;;17.58;93.79
23473;BME280;11909;52.516;13.564;2023-09-12T04:03:58;100513.34;;;17.53;93.96
23473;BME280;11909;52.516;13.564;2023-09-12T04:06:29;100514.47;;;17.52;94.29
23473;BME280;11909;52.516;13.564;2023-09-12T04:08:57;100508.97;;;17.43;94.38
23473;BME280;11909;52.516;13.564;2023-09-12T04:11:25;100520.09;;;17.34;94.79
23473;BME280;11909;52.516;13.564;2023-09-12T04:14:14;100519.28;;;17.34;94.87
23473;BME280;11909;52.516;13.564;2023-09-12T04:16:42;100509.03;;;17.26;95.52
23473;BME280;11909;52.516;13.564;2023-09-12T04:19:10;100514.91;;;17.24;95.54
23473;BME280;11909;52.516;13.564;2023-09-12T04:21:38;100514.59;;;17.26;95.80
23473;BME280;11909;52.516;13.564;2023-09-12T04:24:06;100513.09;;;17.28;95.78
23473;BME280;11909;52.516;13.564;2023-09-12T04:26:34;100518.50;;;17.25;96.03
23473;BME280;11909;52.516;13.564;2023-09-12T04:29:02;100512.13;;;17.24;96.13
23473;BME280;11909;52.516;13.564;2023-09-12T04:31:32;100512.63;;;17.26;95.82
23473;BME280;11909;52.516;13.564;2023-09-12T04:34:00;100526.16;;;17.28;95.77
23473;BME280;11909;52.516;13.564;2023-09-12T04:36:28;100519.19;;;17.22;96.03
23473;BME280;11909;52.516;13.564;2023-09-12T04:38:56;100522.94;;;17.17;96.84
23473;BME280;11909;52.516;13.564;2023-09-12T04:41:24;100517.41;;;17.08;97.77
23473;BME280;11909;52.516;13.564;2023-09-12T04:43:51;100517.22;;;17.13;98.04
23473;BME280;11909;52.516;13.564;2023-09-12T04:46:19;100517.22;;;17.13;97.61
23473;BME280;11909;52.516;13.564;2023-09-12T04:48:49;100518.53;;;17.16;97.64
23473;BME280;11909;52.516;13.564;2023-09-12T04:51:17;100515.09;;;17.19;97.14
23473;BME280;11909;52.516;13.564;2023-09-12T04:53:45;100516.41;;;17.22;97.06
23473;BME280;11909;52.516;13.564;2023-09-12T04:56:18;100519.19;;;17.22;96.86
23473;BME280;11909;52.516;13.564;2023-09-12T04:58:46;100517.19;;;17.22;96.87
23473;BME280;11909;52.516;13.564;2023-09-12T05:01:15;100513.97;;;17.11;97.71
23473;BME280;11909;52.516;13.564;2023-09-12T05:03:43;100513.00;;;17.07;98.53
23473;BME280;11909;52.516;13.564;2023-09-12T05:06:14;100519.19;;;17.13;98.04
23473;BME280;11909;52.516;13.564;2023-09-12T05:08:41;100525.72;;;17.17;97.73
23473;BME280;11909;52.516;13.564;2023-09-12T05:11:10;100522.28;;;17.20;97.44
23473;BME280;11909;52.516;13.564;2023-09-12T05:13:37;100527.16;;;17.23;97.78
23473;BME280;11909;52.516;13.564;2023-09-12T05:16:06;100531.22;;;17.26;97.72
23473;BME280;11909;52.516;13.564;2023-09-12T05:18:33;100524.53;;;17.27;97.82
23473;BME280;11909;52.516;13.564;2023-09-12T05:21:02;100537.91;;;17.33;97.91
23473;BME280;11909;52.516;13.564;2023-09-12T05:23:31;100527.47;;;17.30;98.56
23473;BME280;11909;52.516;13.564;2023-09-12T05:25:59;100528.28;;;17.31;98.84
23473;BME280;11909;52.516;13.564;2023-09-12T05:28:27;100526.44;;;17.35;98.80
23473;BME280;11909;52.516;13.564;2023-09-12T05:30:55;100536.56;;;17.40;98.51
23473;BME280;11909;52.516;13.564;2023-09-12T05:33:23;100535.56;;;17.44;98.39
23473;BME280;11909;52.516;13.564;2023-09-12T05:35:51;100535.84;;;17.52;97.94
23473;BME280;11909;52.516;13.564;2023-09-12T05:38:19;100538.44;;;17.57;97.67
23473;BME280;11909;52.516;13.564;2023-09-12T05:40:48;100547.41;;;17.62;97.69
23473;BME280;11909;52.516;13.564;2023-09-12T05:43:16;100543.78;;;17.62;98.42
23473;BME280;11909;52.516;13.564;2023-09-12T05:45:44;100539.75;;;17.59;99.05
23473;BME280;11909;52.516;13.564;2023-09-12T05:48:12;100535.16;;;17.63;98.90
23473;BME280;11909;52.516;13.564;2023-09-12T05:50:40;100539.16;;;17.75;98.27
23473;BME280;11909;52.516;13.564;2023-09-12T05:53:08;100541.78;;;17.80;97.89
23473;BME280;11909;52.516;13.564;2023-09-12T05:55:36;100551.06;;;17.84;97.75
23473;BME280;11909;52.516;13.564;2023-09-12T05:58:05;100554.31;;;17.86;97.66
23473;BME280;11909;52.516;13.564;2023-09-12T06:00:33;100551.69;;;17.90;98.07
23473;BME280;11909;52.516;13.564;2023-09-12T06:03:01;100543.16;;;17.95;98.11
23473;BME280;11909;52.516;13.564;2023-09-12T06:05:29;100539.88;;;18.02;98.41
23473;BME280;11909;52.516;13.564;2023-09-12T06:07:57;100541.97;;;18.05;98.58
23473;BME280;11909;52.516;13.564;2023-09-12T06:10:25;100548.16;;;18.11;98.54
23473;BME280;11909;52.516;13.564;2023-09-12T06:12:53;100550.84;;;18.19;98.32
23473;BME280;11909;52.516;13.564;2023-09-12T06:15:22;100545.59;;;18.27;98.31
23473;BME280;11909;52.516;13.564;2023-09-12T06:17:50;100539.34;;;18.30;98.66
23473;BME280;11909;52.516;13.564;2023-09-12T06:20:18;100541.59;;;18.37;98.49
23473;BME280;11909;52.516;13.564;2023-09-12T06:22:46;100549.03;;;18.45;98.13
23473;BME280;11909;52.516;13.564;2023-09-12T06:25:15;100544.09;;;18.51;98.01
23473;BME280;11909;52.516;13.564;2023-09-12T06:27:43;100551.41;;;18.55;97.31
23473;BME280;11909;52.516;13.564;2023-09-12T06:30:12;100553.16;;;18.60;95.93
23473;BME280;11909;52.516;13.564;2023-09-12T06:32:42;100552.16;;;18.65;96.00
23473;BME280;11909;52.516;13.564;2023-09-12T06:35:10;100553.94;;;18.69;95.51
23473;BME280;11909;52.516;13.564;2023-09-12T06:37:38;100570.16;;;18.80;89.00
23473;BME280;11909;52.516;13.564;2023-09-12T06:40:07;100579.84;;;18.95;86.32
23473;BME280;11909;52.516;13.564;2023-09-12T06:42:35;100582.72;;;19.07;84.73
23473;BME280;11909;52.516;13.564;2023-09-12T06:45:04;100585.13;;;19.09;84.89
23473;BME280;11909;52.516;13.564;2023-09-12T06:47:31;100587.34;;;19.15;85.37
23473;BME280;11909;52.516;13.564;2023-09-12T06:50:01;100581.09;;;19.18;85.56
23473;BME280;11909;52.516;13.564;2023-09-12T06:52:33;100580.88;;;19.24;86.12
23473;BME280;11909;52.516;13.564;2023-09-12T06:55:01;100585.09;;;19.30;84.87
23473;BME280;11909;52.516;13.564;2023-09-12T06:57:29;100587.66;;;19.35;84.45
23473;BME280;11909;52.516;13.564;2023-09-12T06:59:57;100585.47;;;19.41;83.66
23473;BME280;11909;52.516;13.564;2023-09-12T07:02:26;100587.31;;;19.49;84.36
23473;BME280;11909;52.516;13.564;2023-09-12T07:04:55;100591.25;;;19.60;84.16
23473;BME280;11909;52.516;13.564;2023-09-12T07:07:24;100593.63;;;19.71;82.45
23473;BME280;11909;52.516;13.564;2023-09-12T07:09:52;100597.44;;;19.78;80.57
23473;BME280;11909;52.516;13.564;2023-09-12T07:12:33;100594.19;;;19.89;81.35
23473;BME280;11909;52.516;13.564;2023-09-12T07:15:02;100600.25;;;19.91;81.87
23473;BME280;11909;52.516;13.564;2023-09-12T07:17:29;100599.22;;;19.96;82.39
23473;BME280;11909;52.516;13.564;2023-09-12T07:19:58;100593.53;;;20.04;82.74
23473;BME280;11909;52.516;13.564;2023-09-12T07:22:27;100603.50;;;20.18;79.76
23473;BME280;11909;52.516;13.564;2023-09-12T07:24:55;100598.03;;;20.22;79.58
23473;BME280;11909;52.516;13.564;2023-09-12T07:27:23;100595.72;;;20.24;80.27
23473;BME280;11909;52.516;13.564;2023-09-12T07:29:51;100605.94;;;20.32;80.21
23473;BME280;11909;52.516;13.564;2023-09-12T07:32:19;100598.84;;;20.34;80.34
23473;BME280;11909;52.516;13.564;2023-09-12T07:34:48;100591.03;;;20.40;80.97
23473;BME280;11909;52.516;13.564;2023-09-12T07:37:16;100589.63;;;20.46;81.29
23473;BME280;11909;52.516;13.564;2023-09-12T07:39:45;100589.88;;;20.54;80.85
23473;BME280;11909;52.516;13.564;2023-09-12T07:42:13;100586.81;;;20.59;80.27
23473;BME280;11909;52.516;13.564;2023-09-12T07:44:41;100581.81;;;20.65;80.27
23473;BME280;11909;52.516;13.564;2023-09-12T07:47:09;100589.66;;;20.75;78.77
23473;BME280;11909;52.516;13.564;2023-09-12T07:49:37;100583.53;;;20.82;78.61
23473;BME280;11909;52.516;13.564;2023-09-12T07:52:05;100583.25;;;20.87;78.63
23473;BME280;11909;52.516;13.564;2023-09-12T07:54:33;100591.03;;;20.94;77.28
23473;BME280;11909;52.516;13.564;2023-09-12T07:57:04;100579.72;;;21.02;77.04
23473;BME280;11909;52.516;13.564;2023-09-12T07:59:33;100583.16;;;21.12;76.01
23473;BME280;11909;52.516;13.564;2023-09-12T08:02:01;100591.69;;;21.19;75.90
23473;BME280;11909;52.516;13.564;2023-09-12T08:04:31;100592.97;;;21.22;75.77
23473;BME280;11909;52.516;13.564;2023-09-12T08:07:00;100581.56;;;21.27;75.89
23473;BME280;11909;52.516;13.564;2023-09-12T08:09:48;100582.72;;;21.42;74.27
23473;BME280;11909;52.516;13.564;2023-09-12T08:12:18;100586.53;;;21.49;74.10
23473;BME280;11909;52.516;13.564;2023-09-12T08:14:47;100583.56;;;21.58;74.59
23473;BME280;11909;52.516;13.564;2023-09-12T08:17:15;100590.28;;;21.70;72.32
23473;BME280;11909;52.516;13.564;2023-09-12T08:19:43;100601.72;;;21.81;71.83
23473;BME280;11909;52.516;13.564;2023-09-12T08:22:11;100600.25;;;21.87;70.79
23473;BME280;11909;52.516;13.564;2023-09-12T08:24:40;100603.31;;;21.98;70.76
23473;BME280;11909;52.516;13.564;2023-09-12T08:27:07;100603.03;;;22.03;71.11
23473;BME280;11909;52.516;13.564;2023-09-12T08:29:38;100611.66;;;22.14;69.28
23473;BME280;11909;52.516;13.564;2023-09-12T08:32:05;100591.53;;;22.24;67.96
23473;BME280;11909;52.516;13.564;2023-09-12T08:34:33;100599.66;;;22.29;67.20
23473;BME280;11909;52.516;13.564;2023-09-12T08:37:01;100601.31;;;22.34;67.17
23473;BME280;11909;52.516;13.564;2023-09-12T08:39:40;100591.56;;;22.44;67.07
23473;BME280;11909;52.516;13.564;2023-09-12T08:42:12;100600.59;;;22.53;66.35
23473;BME280;11909;52.516;13.564;2023-09-12T08:44:42;100614.88;;;22.68;66.05
23473;BME280;11909;52.516;13.564;2023-09-12T08:47:11;100608.75;;;22.82;67.38
23473;BME280;11909;52.516;13.564;2023-09-12T08:49:39;100611.63;;;23.05;64.81
23473;BME280;11909;52.516;13.564;2023-09-12T08:52:09;100610.53;;;23.10;64.22
23473;BME280;11909;52.516;13.564;2023-09-12T08:54:37;100615.41;;;23.13;63.90
23473;BME280;11909;52.516;13.564;2023-09-12T08:57:05;100613.03;;;23.34;62.82
23473;BME280;11909;52.516;13.564;2023-09-12T08:59:34;100616.78;;;23.42;62.95
23473;BME280;11909;52.516;13.564;2023-09-12T09:02:06;100613.41;;;23.56;63.60
23473;BME280;11909;52.516;13.564;2023-09-12T09:04:38;100620.56;;;23.77;61.37
23473;BME280;11909;52.516;13.564;2023-09-12T09:07:07;100623.16;;;23.89;61.22
23473;BME280;11909;52.516;13.564;2023-09-12T09:09:38;100629.16;;;24.11;60.09
23473;BME280;11909;52.516;13.564;2023-09-12T09:12:07;100625.84;;;24.32;59.09
23473;BME280;11909;52.516;13.564;2023-09-12T09:14:35;100626.16;;;24.54;58.73
23473;BME280;11909;52.516;13.564;2023-09-12T09:17:04;100630.72;;;24.66;58.30
23473;BME280;11909;52.516;13.564;2023-09-12T09:19:41;100628.50;;;24.79;58.44
23473;BME280;11909;52.516;13.564;2023-09-12T09:22:09;100628.06;;;25.08;56.80
23473;BME280;11909;52.516;13.564;2023-09-12T09:24:37;100629.91;;;25.30;56.70
23473;BME280;11909;52.516;13.564;2023-09-12T09:27:05;100626.72;;;25.32;56.38
23473;BME280;11909;52.516;13.564;2023-09-12T09:29:45;100635.78;;;25.52;55.05
23473;BME280;11909;52.516;13.564;2023-09-12T09:32:19;100640.03;;;25.76;54.22
23473;BME280;11909;52.516;13.564;2023-09-12T09:34:48;100643.44;;;26.04;52.27
23473;BME280;11909;52.516;13.564;2023-09-12T09:37:17;100638.78;;;26.23;50.00
23473;BME280;11909;52.516;13.564;2023-09-12T09:39:47;100645.72;;;26.40;50.90
23473;BME280;11909;52.516;13.564;2023-09-12T09:42:19;100635.69;;;26.42;52.43
23473;BME280;11909;52.516;13.564;2023-09-12T09:44:47;100631.72;;;26.47;53.71
23473;BME280;11909;52.516;13.564;2023-09-12T09:47:19;100651.06;;;26.59;49.52
23473;BME280;11909;52.516;13.564;2023-09-12T09:49:47;100654.31;;;26.65;50.74
23473;BME280;11909;52.516;13.564;2023-09-12T09:52:15;100653.56;;;26.72;51.87
23473;BME280;11909;52.516;13.564;2023-09-12T09:54:44;100635.47;;;26.73;52.48
23473;BME280;11909;52.516;13.564;2023-09-12T09:57:13;100637.47;;;26.76;51.99
23473;BME280;11909;52.516;13.564;2023-09-12T09:59:41;100638.31;;;26.76;52.70
23473;BME280;11909;52.516;13.564;2023-09-12T10:02:14;100638.69;;;26.82;52.49
23473;BME280;11909;52.516;13.564;2023-09-12T10:04:47;100637.16;;;26.88;52.15
23473;BME280;11909;52.516;13.564;2023-09-12T10:07:27;100635.56;;;26.87;52.52
23473;BME280;11909;52.516;13.564;2023-09-12T10:09:56;100636.75;;;26.90;53.16
23473;BME280;11909;52.516;13.564;2023-09-12T10:12:24;100640.38;;;26.94;52.80
23473;BME280;11909;52.516;13.564;2023-09-12T10:14:55;100640.44;;;27.01;53.71
23473;BME280;11909;52.516;13.564;2023-09-12T10:17:29;100630.81;;;27.10;53.84
23473;BME280;11909;52.516;13.564;2023-09-12T10:20:03;100628.00;;;27.17;53.55
23473;BME280;11909;52.516;13.564;2023-09-12T10:22:36;100632.44;;;27.22;54.31
23473;BME280;11909;52.516;13.564;2023-09-12T10:25:06;100621.97;;;27.26;54.72
23473;BME280;11909;52.516;13.564;2023-09-12T10:27:35;100622.38;;;27.20;53.86
23473;BME280;11909;52.516;13.564;2023-09-12T10:30:04;100620.78;;;27.19;53.51
23473;BME280;11909;52.516;13.564;2023-09-12T10:32:33;100623.97;;;27.14;54.06
23473;BME280;11909;52.516;13.564;2023-09-12T10:35:06;100615.13;;;27.16;54.65
23473;BME280;11909;52.516;13.564;2023-09-12T10:37:37;100617.94;;;27.16;55.41
23473;BME280;11909;52.516;13.564;2023-09-12T10:40:08;100607.09;;;27.14;55.66
23473;BME280;11909;52.516;13.564;2023-09-12T10:42:36;100611.09;;;27.17;55.21
23473;BME280;11909;52.516;13.564;2023-09-12T10:45:06;100607.91;;;27.22;53.90
23473;BME280;11909;52.516;13.564;2023-09-12T10:47:35;100597.84;;;27.17;54.41
23473;BME280;11909;52.516;13.564;2023-09-12T10:50:06;100596.66;;;27.22;54.47
23473;BME280;11909;52.516;13.564;2023-09-12T10:52:34;100597.84;;;27.32;55.52
23473;BME280;11909;52.516;13.564;2023-09-12T10:55:07;100601.06;;;27.38;55.96
23473;BME280;11909;52.516;13.564;2023-09-12T10:58:01;100603.50;;;27.50;55.40
23473;BME280;11909;52.516;13.564;2023-09-12T11:00:31;100603.50;;;27.50;54.97
23473;BME280;11909;52.516;13.564;2023-09-12T11:03:00;100609.16;;;27.54;54.03
23473;BME280;11909;52.516;13.564;2023-09-12T11:05:53;100603.13;;;27.48;55.84
23473;BME280;11909;52.516;13.564;2023-09-12T11:08:21;100593.06;;;27.47;55.67
23473;BME280;11909;52.516;13.564;2023-09-12T11:11:17;100596.69;;;27.58;55.80
23473;BME280;11909;52.516;13.564;2023-09-12T11:13:46;100593.88;;;27.62;54.95
23473;BME280;11909;52.516;13.564;2023-09-12T11:16:16;100601.94;;;27.56;53.81
23473;BME280;11909;52.516;13.564;2023-09-12T11:19:12;100588.66;;;27.64;54.85
23473;BME280;11909;52.516;13.564;2023-09-12T11:21:43;100589.06;;;27.77;54.77
23473;BME280;11909;52.516;13.564;2023-09-12T11:24:12;100591.88;;;27.88;54.39
23473;BME280;11909;52.516;13.564;2023-09-12T11:26:54;100597.88;;;27.97;52.92
23473;BME280;11909;52.516;13.564;2023-09-12T11:29:21;100597.88;;;28.08;50.94
23473;BME280;11909;52.516;13.564;2023-09-12T11:31:54;100598.28;;;28.07;51.14
23473;BME280;11909;52.516;13.564;2023-09-12T11:34:27;100593.88;;;28.16;49.13
23473;BME280;11909;52.516;13.564;2023-09-12T11:36:57;100592.63;;;28.25;51.75
23473;BME280;11909;52.516;13.564;2023-09-12T11:39:29;100591.81;;;28.28;50.90
23473;BME280;11909;52.516;13.564;2023-09-12T11:41:58;100599.84;;;28.33;49.60
23473;BME280;11909;52.516;13.564;2023-09-12T11:44:27;100596.28;;;28.22;49.24
23473;BME280;11909;52.516;13.564;2023-09-12T11:46:59;100606.38;;;28.15;49.63
23473;BME280;11909;52.516;13.564;2023-09-12T11:49:35;100591.84;;;28.21;49.80
23473;BME280;11909;52.516;13.564;2023-09-12T11:52:08;100595.03;;;28.30;49.24
23473;BME280;11909;52.516;13.564;2023-09-12T11:54:36;100586.56;;;28.30;49.12
23473;BME280;11909;52.516;13.564;2023-09-12T11:57:07;100593.00;;;28.41;50.59
23473;BME280;11909;52.516;13.564;2023-09-12T11:59:37;100595.00;;;28.41;49.91
23473;BME280;11909;52.516;13.564;2023-09-12T12:02:06;100593.44;;;28.32;48.98
23473;BME280;11909;52.516;13.564;2023-09-12T12:04:35;100588.97;;;28.39;50.28
23473;BME280;11909;52.516;13.564;2023-09-12T12:07:06;100582.09;;;28.36;51.04
23473;BME280;11909;52.516;13.564;2023-09-12T12:09:34;100580.13;;;28.26;50.37
23473;BME280;11909;52.516;13.564;2023-09-12T12:12:10;100587.38;;;28.23;50.48
23473;BME280;11909;52.516;13.564;2023-09-12T12:14:38;100574.88;;;28.13;50.53
23473;BME280;11909;52.516;13.564;2023-09-12T12:17:07;100578.53;;;28.03;50.64
23473;BME280;11909;52.516;13.564;2023-09-12T12:19:36;100585.38;;;27.98;51.72
23473;BME280;11909;52.516;13.564;2023-09-12T12:22:06;100571.31;;;27.95;52.57
23473;BME280;11909;52.516;13.564;2023-09-12T12:24:38;100576.13;;;27.90;52.75
23473;BME280;11909;52.516;13.564;2023-09-12T12:27:06;100576.16;;;27.83;51.92
23473;BME280;11909;52.516;13.564;2023-09-12T12:29:37;100581.38;;;27.77;52.35
23473;BME280;11909;52.516;13.564;2023-09-12T12:32:06;100574.16;;;27.80;50.32
23473;BME280;11909;52.516;13.564;2023-09-12T12:34:36;100580.59;;;27.77;51.89
23473;BME280;11909;52.516;13.564;2023-09-12T12:37:28;100580.19;;;27.75;51.70
23473;BME280;11909;52.516;13.564;2023-09-12T12:39:58;100584.19;;;27.77;51.48
23473;BME280;11909;52.516;13.564;2023-09-12T12:42:33;100574.16;;;27.84;51.97
23473;BME280;11909;52.516;13.564;2023-09-12T12:45:12;100568.50;;;27.87;52.79
23473;BME280;11909;52.516;13.564;2023-09-12T12:47:41;100566.88;;;27.90;53.64
23473;BME280;11909;52.516;13.564;2023-09-12T12:50:11;100563.25;;;27.89;52.92
23473;BME280;11909;52.516;13.564;2023-09-12T12:52:41;100556.41;;;27.90;52.51